createdAt,value
2023-05-15T00:02:17.295Z,6.22
2023-05-15T00:05:03.832Z,6.55
2023-05-15T00:07:49.997Z,5.55
2023-05-15T00:10:35.981Z,5.93
2023-05-15T00:13:22.027Z,5.57
2023-05-15T00:16:09.482Z,5.18
2023-05-15T00:18:55.639Z,5.68
2023-05-15T00:21:41.606Z,5.53
2023-05-15T00:24:30.686Z,5.35
2023-05-15T00:27:16.716Z,4.95
2023-05-15T00:30:02.447Z,5.65
2023-05-15T00:32:48.273Z,5.80
2023-05-15T00:35:36.626Z,5.20
2023-05-15T00:38:22.383Z,5.50
2023-05-15T00:41:10.394Z,5.03
2023-05-15T00:43:56.755Z,5.57
2023-05-15T00:46:43.393Z,5.00
2023-05-15T00:49:30.070Z,5.80
2023-05-15T00:52:15.939Z,5.03
2023-05-15T00:55:02.089Z,5.43
2023-05-15T00:57:48.198Z,5.30
2023-05-15T01:00:34.642Z,5.75
2023-05-15T01:03:21.659Z,5.15
2023-05-15T01:06:07.742Z,5.07
2023-05-15T01:08:55.224Z,5.07
2023-05-15T01:11:42.506Z,5.55
2023-05-15T01:14:29.073Z,5.57
2023-05-15T01:17:14.841Z,4.88
2023-05-15T01:20:01.625Z,5.47
2023-05-15T01:23:09.122Z,5.18
2023-05-15T01:26:13.334Z,5.13
2023-05-15T01:29:04.556Z,5.75
2023-05-15T01:31:57.011Z,6.03
2023-05-15T01:34:58.755Z,5.28
2023-05-15T01:37:46.416Z,5.65
2023-05-15T01:40:32.325Z,5.15
2023-05-15T01:43:21.213Z,5.57
2023-05-15T01:46:07.632Z,6.25
2023-05-15T01:48:55.071Z,5.70
2023-05-15T01:51:42.697Z,5.85
2023-05-15T01:54:29.864Z,5.90
2023-05-15T01:57:16.444Z,5.93
2023-05-15T02:00:03.511Z,5.63
2023-05-15T02:03:09.367Z,5.40
2023-05-15T02:05:56.731Z,5.72
2023-05-15T02:08:43.305Z,5.53
2023-05-15T02:11:29.637Z,4.90
2023-05-15T02:14:17.438Z,4.93
2023-05-15T02:17:03.458Z,5.03
2023-05-15T02:19:49.644Z,5.30
2023-05-15T02:22:36.269Z,5.47
2023-05-15T02:25:33.172Z,5.75
2023-05-15T02:28:32.691Z,5.38
2023-05-15T02:31:27.516Z,7.07
2023-05-15T02:34:30.415Z,7.50
2023-05-15T02:37:18.428Z,5.95
2023-05-15T02:40:07.157Z,5.47
2023-05-15T02:42:53.815Z,5.63
2023-05-15T02:45:41.163Z,6.93
2023-05-15T02:48:27.555Z,7.03
2023-05-15T02:51:14.220Z,6.10
2023-05-15T02:54:01.745Z,6.15
2023-05-15T02:56:47.936Z,8.90
2023-05-15T02:59:35.023Z,11.38
2023-05-15T03:02:20.861Z,13.77
2023-05-15T03:05:07.328Z,9.10
2023-05-15T03:07:53.139Z,10.73
2023-05-15T03:10:39.291Z,9.80
2023-05-15T03:13:25.055Z,9.13
2023-05-15T03:16:10.808Z,6.93
2023-05-15T03:18:56.918Z,6.00
2023-05-15T03:21:42.826Z,6.20
2023-05-15T03:24:28.472Z,6.32
2023-05-15T03:27:14.355Z,5.70
2023-05-15T03:30:00.566Z,5.35
2023-05-15T03:32:46.785Z,5.55
2023-05-15T03:35:32.992Z,5.30
2023-05-15T03:38:20.084Z,5.30
2023-05-15T03:41:06.162Z,5.53
2023-05-15T03:43:51.950Z,5.28
2023-05-15T03:46:37.666Z,5.10
2023-05-15T03:49:23.506Z,5.75
2023-05-15T03:52:09.929Z,5.90
2023-05-15T03:54:55.836Z,8.57
2023-05-15T03:57:41.984Z,6.57
2023-05-15T04:00:28.086Z,5.40
2023-05-15T04:03:14.138Z,5.53
2023-05-15T04:06:00.355Z,6.25
2023-05-15T04:08:46.291Z,6.90
2023-05-15T04:11:34.900Z,5.55
2023-05-15T04:14:21.003Z,5.65
2023-05-15T04:17:06.771Z,6.22
2023-05-15T04:19:52.545Z,7.22
2023-05-15T04:22:38.647Z,7.68
2023-05-15T04:25:24.803Z,8.00
2023-05-15T04:28:11.114Z,7.93
2023-05-15T04:30:58.676Z,8.38
2023-05-15T04:33:44.485Z,7.82
2023-05-15T04:36:30.315Z,6.57
2023-05-15T04:39:16.153Z,6.63
2023-05-15T04:42:02.475Z,5.82
2023-05-15T04:44:48.496Z,7.10
2023-05-15T04:47:34.332Z,6.57
2023-05-15T04:50:20.443Z,6.32
2023-05-15T04:53:06.588Z,6.13
2023-05-15T04:55:52.287Z,7.03
2023-05-15T04:58:38.467Z,6.80
2023-05-15T05:01:24.329Z,6.75
2023-05-15T05:04:10.361Z,6.93
2023-05-15T05:06:56.137Z,6.45
2023-05-15T05:09:42.264Z,7.53
2023-05-15T05:12:28.330Z,6.88
2023-05-15T05:15:14.534Z,7.60
2023-05-15T05:18:00.659Z,6.97
2023-05-15T05:20:47.025Z,6.53
2023-05-15T05:23:33.133Z,6.93
2023-05-15T05:26:18.869Z,6.95
2023-05-15T05:29:04.786Z,7.18
2023-05-15T05:31:51.477Z,6.28
2023-05-15T05:34:37.802Z,6.65
2023-05-15T05:37:24.903Z,7.15
2023-05-15T05:40:11.061Z,6.05
2023-05-15T05:43:03.741Z,7.10
2023-05-15T05:45:49.718Z,8.05
2023-05-15T05:48:36.648Z,7.22
2023-05-15T05:51:22.382Z,7.00
2023-05-15T05:54:08.128Z,7.40
2023-05-15T05:56:54.184Z,7.28
2023-05-15T05:59:40.050Z,7.43
2023-05-15T06:02:26.155Z,6.88
2023-05-15T06:05:12.230Z,7.82
2023-05-15T06:07:58.229Z,7.80
2023-05-15T06:10:44.953Z,7.97
2023-05-15T06:13:31.066Z,6.72
2023-05-15T06:16:16.807Z,6.90
2023-05-15T06:19:02.868Z,7.22
2023-05-15T06:21:48.725Z,6.25
2023-05-15T06:24:34.735Z,7.20
2023-05-15T06:27:21.101Z,7.03
2023-05-15T06:30:08.255Z,8.05
2023-05-15T06:32:55.820Z,8.18
2023-05-15T06:35:42.608Z,6.93
2023-05-15T06:38:28.638Z,7.15
2023-05-15T06:41:14.529Z,8.10
2023-05-15T06:44:00.579Z,7.82
2023-05-15T06:46:46.468Z,8.38
2023-05-15T06:49:32.417Z,8.50
2023-05-15T06:52:18.157Z,8.32
2023-05-15T06:55:04.125Z,8.45
2023-05-15T06:57:50.785Z,8.93
2023-05-15T07:00:36.628Z,8.10
2023-05-15T07:03:22.554Z,8.23
2023-05-15T07:06:08.416Z,7.60
2023-05-15T07:08:54.574Z,7.95
2023-05-15T07:11:42.241Z,7.47
2023-05-15T07:14:28.230Z,8.43
2023-05-15T07:17:14.020Z,7.72
2023-05-15T07:20:00.223Z,8.50
2023-05-15T07:22:55.620Z,15.50
2023-05-15T07:25:45.938Z,9.73
2023-05-15T07:28:32.292Z,10.68
2023-05-15T07:31:18.189Z,11.13
2023-05-15T07:34:04.049Z,11.90
2023-05-15T07:36:50.179Z,10.98
2023-05-15T07:39:36.004Z,11.13
2023-05-15T07:42:21.909Z,10.73
2023-05-15T07:45:08.432Z,10.55
2023-05-15T07:47:54.779Z,30.55
2023-05-15T07:50:40.992Z,25.00
2023-05-15T07:53:27.299Z,20.15
2023-05-15T07:56:13.253Z,10.88
2023-05-15T07:58:59.252Z,10.13
2023-05-15T08:01:45.261Z,9.15
2023-05-15T08:04:31.229Z,10.57
2023-05-15T08:07:17.328Z,9.70
2023-05-15T08:10:06.272Z,9.40
2023-05-15T08:12:52.456Z,18.77
2023-05-15T08:15:38.682Z,10.45
2023-05-15T08:18:24.576Z,8.95
2023-05-15T08:21:11.195Z,8.30
2023-05-15T08:23:57.428Z,8.32
2023-05-15T08:26:43.517Z,9.80
2023-05-15T08:29:29.582Z,10.32
2023-05-15T08:32:16.456Z,10.00
2023-05-15T08:35:02.281Z,8.75
2023-05-15T08:37:48.235Z,8.60
2023-05-15T08:40:39.003Z,8.63
2023-05-15T08:43:27.426Z,8.35
2023-05-15T08:46:13.584Z,9.52
2023-05-15T08:49:03.628Z,9.15
2023-05-15T08:51:49.677Z,9.88
2023-05-15T08:54:36.392Z,10.07
2023-05-15T08:57:22.847Z,15.15
2023-05-15T09:00:09.522Z,9.15
2023-05-15T09:02:55.378Z,8.48
2023-05-15T09:05:41.659Z,8.30
2023-05-15T09:08:29.135Z,9.93
2023-05-15T09:11:16.003Z,8.50
2023-05-15T09:14:01.857Z,8.43
2023-05-15T09:16:51.111Z,10.02
2023-05-15T09:19:39.199Z,9.02
2023-05-15T09:22:26.107Z,9.20
2023-05-15T09:25:13.401Z,10.32
2023-05-15T09:28:00.048Z,11.80
2023-05-15T09:30:46.306Z,10.35
2023-05-15T09:33:39.129Z,9.55
2023-05-15T09:36:26.411Z,10.00
2023-05-15T09:39:12.471Z,9.35
2023-05-15T09:42:08.682Z,10.35
2023-05-15T09:44:54.173Z,8.93
2023-05-15T09:47:40.237Z,7.85
2023-05-15T09:50:37.606Z,8.65
2023-05-15T09:53:24.360Z,8.50
2023-05-15T09:56:14.219Z,8.70
2023-05-15T09:59:01.022Z,9.25
2023-05-15T10:01:47.329Z,8.88
2023-05-15T10:04:36.913Z,9.55
2023-05-15T10:07:38.570Z,8.20
2023-05-15T10:10:26.326Z,10.80
2023-05-15T10:13:12.515Z,8.93
2023-05-15T10:15:59.256Z,8.55
2023-05-15T10:18:45.807Z,8.35
2023-05-15T10:21:34.688Z,8.50
2023-05-15T10:24:21.559Z,7.60
2023-05-15T10:27:09.598Z,8.40
2023-05-15T10:29:59.492Z,7.85
2023-05-15T10:32:52.429Z,7.82
2023-05-15T10:35:42.811Z,8.38
2023-05-15T10:38:31.892Z,9.52
2023-05-15T10:41:18.336Z,7.30
2023-05-15T10:44:04.511Z,7.18
2023-05-15T10:46:50.732Z,6.85
2023-05-15T10:49:36.848Z,7.93
2023-05-15T10:52:22.995Z,9.52
2023-05-15T10:55:13.474Z,8.35
2023-05-15T10:57:59.752Z,8.30
2023-05-15T11:00:47.977Z,7.63
2023-05-15T11:03:47.894Z,7.43
2023-05-15T11:06:45.485Z,6.50
2023-05-15T11:09:36.203Z,6.95
2023-05-15T11:12:23.568Z,6.55
2023-05-15T11:15:09.387Z,7.30
2023-05-15T11:18:28.661Z,6.75
2023-05-15T11:21:16.613Z,6.60
2023-05-15T11:24:15.079Z,6.68
2023-05-15T11:27:38.949Z,7.55
2023-05-15T11:30:41.518Z,7.28
2023-05-15T11:33:33.522Z,8.70
2023-05-15T11:36:24.405Z,11.38
2023-05-15T11:39:11.990Z,8.02
2023-05-15T11:42:11.450Z,7.53
2023-05-15T11:44:57.553Z,6.25
2023-05-15T11:47:45.441Z,6.50
2023-05-15T11:50:33.676Z,6.95
2023-05-15T11:53:20.998Z,11.02
2023-05-15T11:56:07.432Z,10.00
2023-05-15T11:58:58.731Z,30.05
2023-05-15T12:01:48.500Z,8.57
2023-05-15T12:04:34.962Z,7.72
2023-05-15T12:07:20.818Z,6.18
2023-05-15T12:10:07.702Z,5.82
2023-05-15T12:12:53.553Z,5.25
2023-05-15T12:15:43.166Z,5.35
2023-05-15T12:18:31.944Z,4.68
2023-05-15T12:21:18.057Z,4.82
2023-05-15T12:24:08.138Z,4.95
2023-05-15T12:26:56.627Z,5.00
2023-05-15T12:29:43.943Z,6.15
2023-05-15T12:32:32.951Z,7.10
2023-05-15T12:35:19.293Z,6.68
2023-05-15T12:38:05.905Z,6.30
2023-05-15T12:57:14.486Z,6.30
2023-05-15T13:00:00.658Z,6.07
2023-05-15T13:02:48.843Z,6.57
2023-05-15T13:05:36.654Z,6.60
2023-05-15T13:08:22.880Z,6.18
2023-05-15T13:11:14.169Z,6.88
2023-05-15T13:14:00.720Z,6.78
2023-05-15T13:16:47.192Z,7.57
2023-05-15T13:19:33.288Z,7.43
2023-05-15T13:22:18.961Z,7.82
2023-05-15T13:25:05.407Z,8.02
2023-05-15T13:27:51.672Z,7.75
2023-05-15T13:30:41.548Z,8.30
2023-05-15T13:33:27.614Z,7.15
2023-05-15T13:36:19.602Z,7.65
2023-05-15T13:39:06.591Z,8.60
2023-05-15T13:41:52.525Z,8.57
2023-05-15T13:46:09.071Z,7.95
2023-05-15T13:48:55.259Z,6.47
2023-05-15T13:51:41.242Z,5.88
2023-05-15T13:54:26.953Z,6.20
2023-05-15T13:57:13.145Z,6.00
2023-05-15T14:00:31.228Z,6.38
2023-05-15T14:13:01.247Z,7.60
2023-05-15T14:15:48.076Z,9.25
2023-05-15T14:18:36.864Z,8.32
2023-05-15T14:21:23.250Z,9.18
2023-05-15T14:24:09.118Z,9.95
2023-05-15T14:26:55.233Z,8.93
2023-05-15T14:29:41.559Z,8.13
2023-05-15T14:32:27.700Z,7.90
2023-05-15T14:35:13.554Z,7.35
2023-05-15T14:37:59.845Z,6.88
2023-05-15T14:40:46.010Z,6.60
2023-05-15T14:43:31.863Z,6.40
2023-05-15T14:46:18.880Z,6.25
2023-05-15T14:49:05.475Z,5.85
2023-05-15T14:51:51.316Z,5.43
2023-05-15T14:56:52.536Z,5.28
2023-05-15T14:59:38.349Z,8.25
2023-05-15T15:02:24.220Z,17.73
2023-05-15T15:05:10.292Z,15.15
2023-05-15T15:08:05.886Z,47.42
2023-05-15T15:10:52.290Z,8.80
2023-05-15T15:13:38.541Z,7.28
2023-05-15T15:16:27.225Z,7.13
2023-05-15T15:19:13.753Z,7.30
2023-05-15T15:21:59.598Z,41.72
2023-05-15T15:24:45.694Z,31.70
2023-05-15T15:27:37.100Z,19.75
2023-05-15T15:30:25.268Z,8.13
2023-05-15T15:33:11.491Z,7.38
2023-05-15T15:35:57.571Z,7.40
2023-05-15T15:38:43.828Z,6.50
2023-05-15T15:41:33.124Z,6.68
2023-05-15T15:44:19.188Z,6.35
2023-05-15T15:47:05.148Z,21.33
2023-05-15T15:49:51.523Z,20.23
2023-05-15T15:52:37.502Z,35.33
2023-05-15T15:55:24.661Z,7.40
2023-05-15T15:58:10.579Z,8.48
2023-05-15T16:00:58.039Z,7.45
2023-05-15T16:03:44.001Z,6.75
2023-05-15T16:06:30.155Z,7.10
2023-05-15T16:09:19.146Z,7.15
2023-05-15T16:12:05.311Z,7.00
2023-05-15T16:14:51.398Z,7.40
2023-05-15T16:17:38.638Z,7.60
2023-05-15T16:20:25.030Z,8.20
2023-05-15T16:23:15.021Z,8.38
2023-05-15T16:26:02.436Z,8.20
2023-05-15T16:28:48.440Z,8.05
2023-05-15T16:31:34.530Z,7.10
2023-05-15T16:34:20.882Z,6.80
2023-05-15T16:37:06.875Z,7.05
2023-05-15T16:39:52.969Z,6.97
2023-05-15T16:42:39.709Z,6.72
2023-05-15T16:45:26.190Z,7.07
2023-05-15T16:48:12.459Z,7.25
2023-05-15T16:50:58.436Z,6.43
2023-05-15T16:53:44.765Z,7.05
2023-05-15T16:56:42.436Z,7.18
2023-05-15T16:59:34.662Z,10.45
2023-05-15T17:02:24.150Z,19.90
2023-05-15T17:05:10.981Z,8.23
2023-05-15T17:07:56.977Z,6.80
2023-05-15T17:10:42.996Z,7.20
2023-05-15T17:13:29.016Z,7.40
2023-05-15T17:16:14.952Z,7.93
2023-05-15T17:19:01.297Z,7.30
2023-05-15T17:21:47.065Z,6.70
2023-05-15T17:24:54.445Z,7.82
2023-05-15T17:27:41.656Z,7.00
2023-05-15T17:30:27.744Z,6.50
2023-05-15T17:33:13.706Z,7.13
2023-05-15T17:35:59.572Z,6.88
2023-05-15T17:38:45.199Z,7.63
2023-05-15T17:41:31.202Z,7.63
2023-05-15T17:44:17.355Z,8.45
2023-05-15T17:47:03.274Z,7.68
2023-05-15T17:49:49.636Z,7.78
2023-05-15T17:52:37.249Z,8.38
2023-05-15T17:55:24.311Z,8.10
2023-05-15T17:58:10.450Z,10.35
2023-05-15T18:00:57.436Z,8.88
2023-05-15T18:03:43.380Z,9.07
2023-05-15T18:06:29.289Z,17.20
2023-05-15T18:09:15.269Z,23.67
2023-05-15T18:12:01.384Z,23.88
2023-05-15T18:14:47.504Z,16.20
2023-05-15T18:17:33.303Z,10.00
2023-05-15T18:20:19.153Z,10.55
2023-05-15T18:23:04.921Z,9.23
2023-05-15T18:25:51.078Z,8.45
2023-05-15T18:28:37.303Z,7.80
2023-05-15T18:31:23.538Z,8.18
2023-05-15T18:34:09.744Z,13.88
2023-05-15T18:36:56.038Z,41.72
2023-05-15T18:39:44.416Z,51.85
2023-05-15T18:42:31.508Z,109.57
2023-05-15T18:45:17.654Z,17.85
2023-05-15T18:48:04.036Z,16.05
2023-05-15T18:51:16.265Z,15.13
2023-05-15T18:54:02.437Z,11.02
2023-05-15T18:56:48.477Z,11.30
2023-05-15T18:59:34.915Z,10.48
2023-05-15T19:02:30.646Z,10.60
2023-05-15T19:05:16.957Z,12.32
2023-05-15T19:08:04.041Z,10.80
2023-05-15T19:10:50.844Z,13.80
2023-05-15T19:13:36.850Z,11.63
2023-05-15T19:16:26.913Z,14.27
2023-05-15T19:19:13.413Z,11.23
2023-05-15T19:21:59.156Z,69.93
2023-05-15T19:24:45.075Z,37.88
2023-05-15T19:27:32.086Z,32.15
2023-05-15T19:30:18.372Z,17.58
2023-05-15T19:33:04.391Z,11.35
2023-05-15T19:35:50.950Z,11.80
2023-05-15T19:38:37.854Z,32.10
2023-05-15T19:41:24.240Z,29.42
2023-05-15T19:44:10.345Z,19.45
2023-05-15T19:46:56.538Z,36.60
2023-05-15T19:49:43.559Z,33.00
2023-05-15T19:52:29.913Z,49.53
2023-05-15T19:55:15.951Z,69.03
2023-05-15T19:58:01.934Z,49.55
2023-05-15T20:00:48.489Z,26.60
2023-05-15T20:03:35.126Z,14.05
2023-05-15T20:06:21.326Z,15.00
2023-05-15T20:09:07.409Z,10.30
2023-05-15T20:11:53.433Z,9.90
2023-05-15T20:14:39.381Z,16.08
2023-05-15T20:17:25.371Z,18.60
2023-05-15T20:20:12.321Z,11.60
2023-05-15T20:22:58.512Z,9.73
2023-05-15T20:25:44.536Z,7.80
2023-05-15T20:28:30.780Z,7.85
2023-05-15T20:31:16.649Z,7.13
2023-05-15T20:34:08.502Z,7.50
2023-05-15T20:36:54.992Z,7.90
2023-05-15T20:39:40.907Z,8.27
2023-05-15T20:42:29.281Z,13.70
2023-05-15T20:45:15.364Z,15.90
2023-05-15T20:48:01.633Z,13.73
2023-05-15T20:50:53.196Z,23.45
2023-05-15T20:53:39.008Z,40.38
2023-05-15T20:56:25.824Z,33.83
2023-05-15T20:59:11.734Z,39.08
2023-05-15T21:01:57.543Z,33.78
2023-05-15T21:04:44.142Z,21.02
2023-05-15T21:07:30.045Z,18.58
2023-05-15T21:10:15.990Z,46.30
2023-05-15T21:13:02.199Z,54.85
2023-05-15T21:15:48.108Z,61.20
2023-05-15T21:18:34.359Z,34.33
2023-05-15T21:21:20.739Z,24.60
2023-05-15T21:24:07.250Z,20.30
2023-05-15T21:26:53.458Z,14.82
2023-05-15T21:29:39.615Z,13.32
2023-05-15T21:32:25.662Z,10.77
2023-05-15T21:35:11.913Z,9.93
2023-05-15T21:37:58.023Z,9.45
2023-05-15T21:40:57.934Z,9.55
2023-05-15T21:43:43.912Z,9.80
2023-05-15T21:46:29.639Z,9.18
2023-05-15T21:49:48.095Z,9.63
2023-05-15T21:53:45.439Z,13.50
2023-05-15T21:56:31.960Z,9.93
2023-05-15T21:59:17.854Z,11.13
2023-05-15T22:02:03.993Z,11.13
2023-05-15T22:04:49.800Z,11.45
2023-05-15T22:07:35.662Z,15.27
2023-05-15T22:10:22.469Z,16.13
2023-05-15T22:13:09.197Z,12.73
2023-05-15T22:15:55.175Z,13.30
2023-05-15T22:18:45.047Z,14.27
2023-05-15T22:21:32.109Z,16.05
2023-05-15T22:24:18.011Z,11.57
2023-05-15T22:27:04.037Z,22.52
2023-05-15T22:29:50.014Z,19.10
2023-05-15T22:32:36.157Z,12.75
2023-05-15T22:35:22.293Z,15.52
2023-05-15T22:38:08.321Z,50.05
2023-05-15T22:40:54.116Z,23.25
2023-05-15T22:43:40.096Z,19.80
2023-05-15T22:46:25.785Z,12.30
2023-05-15T22:49:24.373Z,13.13
2023-05-15T22:52:12.948Z,26.92
2023-05-15T22:54:59.965Z,14.63
2023-05-15T22:57:45.827Z,17.98
2023-05-15T23:00:32.373Z,23.05
2023-05-15T23:03:18.578Z,28.30
2023-05-15T23:06:05.004Z,51.53
2023-05-15T23:08:51.409Z,33.03
2023-05-15T23:11:37.957Z,20.23
2023-05-15T23:14:24.403Z,24.80
2023-05-15T23:17:10.497Z,53.40
2023-05-15T23:19:56.548Z,54.58
2023-05-15T23:22:42.412Z,21.58
2023-05-15T23:25:28.412Z,13.75
2023-05-15T23:28:14.312Z,10.80
2023-05-15T23:31:00.072Z,9.88
2023-05-15T23:33:45.713Z,13.07
2023-05-15T23:36:31.454Z,12.63
2023-05-15T23:39:17.250Z,12.55
2023-05-15T23:42:03.383Z,7.93
2023-05-15T23:44:50.066Z,7.97
2023-05-15T23:47:36.603Z,8.38
2023-05-15T23:50:23.201Z,7.18
2023-05-15T23:53:09.304Z,7.75
2023-05-15T23:55:55.500Z,9.45
2023-05-15T23:58:41.773Z,8.35
